sensor_id;sensor_type;location;lat;lon;timestamp;temperature;humidity
9820;DHT22;4949;48.482;9.206;2022-09-28T00:03:13;10.10;77.50
9820;DHT22;4949;48.482;9.206;2022-09-28T00:08:16;10.30;78.00
9820;DHT22;4949;48.482;9.206;2022-09-28T00:13:17;10.20;78.00
9820;DHT22;4949;48.482;9.206;2022-09-28T00:18:18;10.30;77.20
9820;DHT22;4949;48.482;9.206;2022-09-28T00:23:21;10.30;76.30
9820;DHT22;4949;48.482;9.206;2022-09-28T00:28:22;10.40;76.40
9820;DHT22;4949;48.482;9.206;2022-09-28T00:33:25;10.40;76.20
9820;DHT22;4949;48.482;9.206;2022-09-28T00:38:27;10.40;75.80
9820;DHT22;4949;48.482;9.206;2022-09-28T00:43:30;10.40;76.20
9820;DHT22;4949;48.482;9.206;2022-09-28T00:48:36;10.50;76.20
9820;DHT22;4949;48.482;9.206;2022-09-28T00:53:43;10.50;76.20
9820;DHT22;4949;48.482;9.206;2022-09-28T00:58:53;10.50;76.60
9820;DHT22;4949;48.482;9.206;2022-09-28T01:03:57;10.50;77.20
9820;DHT22;4949;48.482;9.206;2022-09-28T01:09:02;10.50;76.90
9820;DHT22;4949;48.482;9.206;2022-09-28T01:14:07;10.50;76.70
9820;DHT22;4949;48.482;9.206;2022-09-28T01:24:44;10.60;76.10
9820;DHT22;4949;48.482;9.206;2022-09-28T01:35:31;10.60;75.80
9820;DHT22;4949;48.482;9.206;2022-09-28T01:40:36;10.60;76.40
9820;DHT22;4949;48.482;9.206;2022-09-28T01:45:46;10.70;75.90
9820;DHT22;4949;48.482;9.206;2022-09-28T01:50:53;10.60;76.60
9820;DHT22;4949;48.482;9.206;2022-09-28T01:56:02;10.60;76.30
9820;DHT22;4949;48.482;9.206;2022-09-28T02:01:15;10.70;76.70
9820;DHT22;4949;48.482;9.206;2022-09-28T02:06:30;10.70;76.70
9820;DHT22;4949;48.482;9.206;2022-09-28T02:11:33;10.70;77.00
9820;DHT22;4949;48.482;9.206;2022-09-28T02:16:41;10.70;76.90
9820;DHT22;4949;48.482;9.206;2022-09-28T02:26:58;10.80;76.60
9820;DHT22;4949;48.482;9.206;2022-09-28T02:32:03;10.80;76.70
9820;DHT22;4949;48.482;9.206;2022-09-28T02:37:04;10.80;76.40
9820;DHT22;4949;48.482;9.206;2022-09-28T02:42:26;10.70;76.60
9820;DHT22;4949;48.482;9.206;2022-09-28T03:09:33;10.90;74.50
9820;DHT22;4949;48.482;9.206;2022-09-28T03:15:26;10.90;74.60
9820;DHT22;4949;48.482;9.206;2022-09-28T03:20:31;10.90;75.10
9820;DHT22;4949;48.482;9.206;2022-09-28T03:25:32;10.90;75.00
9820;DHT22;4949;48.482;9.206;2022-09-28T03:30:35;10.90;75.00
9820;DHT22;4949;48.482;9.206;2022-09-28T03:35:39;10.90;75.00
9820;DHT22;4949;48.482;9.206;2022-09-28T03:40:39;11.00;75.80
9820;DHT22;4949;48.482;9.206;2022-09-28T03:45:42;10.90;76.00
9820;DHT22;4949;48.482;9.206;2022-09-28T03:50:43;10.90;76.90
9820;DHT22;4949;48.482;9.206;2022-09-28T03:55:44;10.90;77.00
9820;DHT22;4949;48.482;9.206;2022-09-28T04:00:45;11.00;77.40
9820;DHT22;4949;48.482;9.206;2022-09-28T04:05:50;10.90;77.60
9820;DHT22;4949;48.482;9.206;2022-09-28T04:10:56;10.90;78.40
9820;DHT22;4949;48.482;9.206;2022-09-28T04:15:59;10.90;79.30
9820;DHT22;4949;48.482;9.206;2022-09-28T04:21:06;10.90;79.90
9820;DHT22;4949;48.482;9.206;2022-09-28T04:26:23;10.90;80.60
9820;DHT22;4949;48.482;9.206;2022-09-28T04:31:27;10.80;80.70
9820;DHT22;4949;48.482;9.206;2022-09-28T04:36:31;10.80;80.90
9820;DHT22;4949;48.482;9.206;2022-09-28T04:41:36;10.80;80.70
9820;DHT22;4949;48.482;9.206;2022-09-28T04:46:37;10.80;80.30
9820;DHT22;4949;48.482;9.206;2022-09-28T04:51:38;10.80;81.70
9820;DHT22;4949;48.482;9.206;2022-09-28T04:56:39;10.80;80.80
9820;DHT22;4949;48.482;9.206;2022-09-28T05:01:42;10.80;81.10
9820;DHT22;4949;48.482;9.206;2022-09-28T05:06:45;10.80;81.30
9820;DHT22;4949;48.482;9.206;2022-09-28T05:11:50;10.80;81.60
9820;DHT22;4949;48.482;9.206;2022-09-28T05:16:52;10.80;81.80
9820;DHT22;4949;48.482;9.206;2022-09-28T05:21:55;10.80;81.90
9820;DHT22;4949;48.482;9.206;2022-09-28T05:27:02;10.80;81.90
9820;DHT22;4949;48.482;9.206;2022-09-28T05:32:03;10.80;82.10
9820;DHT22;4949;48.482;9.206;2022-09-28T05:37:06;10.40;82.20
9820;DHT22;4949;48.482;9.206;2022-09-28T05:42:06;10.80;82.50
9820;DHT22;4949;48.482;9.206;2022-09-28T05:47:07;10.80;83.00
9820;DHT22;4949;48.482;9.206;2022-09-28T05:52:10;10.70;82.90
9820;DHT22;4949;48.482;9.206;2022-09-28T05:57:14;10.70;83.20
9820;DHT22;4949;48.482;9.206;2022-09-28T06:02:14;10.90;83.60
9820;DHT22;4949;48.482;9.206;2022-09-28T06:07:18;10.70;83.70
9820;DHT22;4949;48.482;9.206;2022-09-28T06:12:22;10.60;83.50
9820;DHT22;4949;48.482;9.206;2022-09-28T06:17:25;10.70;83.50
9820;DHT22;4949;48.482;9.206;2022-09-28T06:22:28;10.70;83.60
9820;DHT22;4949;48.482;9.206;2022-09-28T06:27:32;10.80;83.50
9820;DHT22;4949;48.482;9.206;2022-09-28T06:32:36;10.80;83.70
9820;DHT22;4949;48.482;9.206;2022-09-28T06:37:37;10.80;83.70
9820;DHT22;4949;48.482;9.206;2022-09-28T06:42:37;10.80;82.60
9820;DHT22;4949;48.482;9.206;2022-09-28T06:47:38;10.70;81.60
9820;DHT22;4949;48.482;9.206;2022-09-28T06:52:39;10.70;82.30
9820;DHT22;4949;48.482;9.206;2022-09-28T06:57:42;10.80;82.10
9820;DHT22;4949;48.482;9.206;2022-09-28T07:02:43;10.60;82.20
9820;DHT22;4949;48.482;9.206;2022-09-28T07:07:46;10.60;82.00
9820;DHT22;4949;48.482;9.206;2022-09-28T07:12:50;10.70;82.30
9820;DHT22;4949;48.482;9.206;2022-09-28T07:18:01;10.70;82.00
9820;DHT22;4949;48.482;9.206;2022-09-28T07:23:05;10.70;81.80
9820;DHT22;4949;48.482;9.206;2022-09-28T07:28:10;10.80;82.70
9820;DHT22;4949;48.482;9.206;2022-09-28T07:33:15;10.70;83.90
9820;DHT22;4949;48.482;9.206;2022-09-28T07:38:16;10.80;83.40
9820;DHT22;4949;48.482;9.206;2022-09-28T07:43:17;10.80;83.00
9820;DHT22;4949;48.482;9.206;2022-09-28T07:48:22;10.90;82.80
9820;DHT22;4949;48.482;9.206;2022-09-28T07:53:24;10.90;82.30
9820;DHT22;4949;48.482;9.206;2022-09-28T07:58:27;10.90;81.60
9820;DHT22;4949;48.482;9.206;2022-09-28T08:03:33;10.90;81.70
9820;DHT22;4949;48.482;9.206;2022-09-28T08:08:41;11.10;81.90
9820;DHT22;4949;48.482;9.206;2022-09-28T08:13:45;10.90;82.20
9820;DHT22;4949;48.482;9.206;2022-09-28T08:18:52;10.90;82.20
9820;DHT22;4949;48.482;9.206;2022-09-28T08:23:53;11.00;82.50
9820;DHT22;4949;48.482;9.206;2022-09-28T08:28:59;11.00;82.40
9820;DHT22;4949;48.482;9.206;2022-09-28T08:39:44;10.70;79.50
9820;DHT22;4949;48.482;9.206;2022-09-28T08:44:48;10.60;80.30
9820;DHT22;4949;48.482;9.206;2022-09-28T08:49:51;10.70;81.40
9820;DHT22;4949;48.482;9.206;2022-09-28T08:55:35;10.60;81.70
9820;DHT22;4949;48.482;9.206;2022-09-28T09:00:51;10.60;81.40
9820;DHT22;4949;48.482;9.206;2022-09-28T09:06:12;10.70;81.70
9820;DHT22;4949;48.482;9.206;2022-09-28T09:17:03;10.90;81.60
9820;DHT22;4949;48.482;9.206;2022-09-28T09:22:20;10.90;81.90
9820;DHT22;4949;48.482;9.206;2022-09-28T09:49:57;11.10;81.60
9820;DHT22;4949;48.482;9.206;2022-09-28T09:55:19;11.20;81.10
9820;DHT22;4949;48.482;9.206;2022-09-28T10:00:50;11.20;80.40
9820;DHT22;4949;48.482;9.206;2022-09-28T10:06:05;11.30;80.50
9820;DHT22;4949;48.482;9.206;2022-09-28T10:11:17;11.20;79.60
9820;DHT22;4949;48.482;9.206;2022-09-28T10:16:21;11.30;81.20
9820;DHT22;4949;48.482;9.206;2022-09-28T10:21:23;11.30;80.70
9820;DHT22;4949;48.482;9.206;2022-09-28T10:26:33;11.40;81.60
9820;DHT22;4949;48.482;9.206;2022-09-28T10:31:43;11.50;79.80
9820;DHT22;4949;48.482;9.206;2022-09-28T10:37:09;11.60;79.40
9820;DHT22;4949;48.482;9.206;2022-09-28T10:42:19;11.90;78.30
9820;DHT22;4949;48.482;9.206;2022-09-28T10:47:24;11.80;77.90
9820;DHT22;4949;48.482;9.206;2022-09-28T10:52:40;11.80;77.80
9820;DHT22;4949;48.482;9.206;2022-09-28T10:58:09;12.00;78.30
9820;DHT22;4949;48.482;9.206;2022-09-28T11:03:24;12.10;77.50
9820;DHT22;4949;48.482;9.206;2022-09-28T11:08:32;12.10;76.50
9820;DHT22;4949;48.482;9.206;2022-09-28T11:13:47;12.10;75.40
9820;DHT22;4949;48.482;9.206;2022-09-28T11:18:49;12.00;74.40
9820;DHT22;4949;48.482;9.206;2022-09-28T11:23:59;12.10;75.10
9820;DHT22;4949;48.482;9.206;2022-09-28T11:34:45;12.40;74.80
9820;DHT22;4949;48.482;9.206;2022-09-28T11:51:36;12.40;74.00
9820;DHT22;4949;48.482;9.206;2022-09-28T11:56:49;12.50;74.10
9820;DHT22;4949;48.482;9.206;2022-09-28T12:01:56;12.40;71.90
9820;DHT22;4949;48.482;9.206;2022-09-28T12:07:20;12.40;70.90
9820;DHT22;4949;48.482;9.206;2022-09-28T12:12:57;12.40;70.40
9820;DHT22;4949;48.482;9.206;2022-09-28T12:17:53;12.30;67.10
9820;DHT22;4949;48.482;9.206;2022-09-28T12:23:06;12.30;66.20
9820;DHT22;4949;48.482;9.206;2022-09-28T12:28:37;12.30;66.50
9820;DHT22;4949;48.482;9.206;2022-09-28T12:33:45;12.40;66.40
9820;DHT22;4949;48.482;9.206;2022-09-28T12:38:59;12.40;67.00
9820;DHT22;4949;48.482;9.206;2022-09-28T12:55:41;12.70;63.20
9820;DHT22;4949;48.482;9.206;2022-09-28T13:12:24;12.70;62.70
9820;DHT22;4949;48.482;9.206;2022-09-28T13:17:48;12.90;62.40
9820;DHT22;4949;48.482;9.206;2022-09-28T13:23:00;12.70;60.10
9820;DHT22;4949;48.482;9.206;2022-09-28T13:28:08;12.80;61.00
9820;DHT22;4949;48.482;9.206;2022-09-28T13:33:23;12.80;60.40
9820;DHT22;4949;48.482;9.206;2022-09-28T13:38:45;12.80;61.60
9820;DHT22;4949;48.482;9.206;2022-09-28T14:00:00;13.10;62.90
9820;DHT22;4949;48.482;9.206;2022-09-28T14:10:45;13.00;62.10
9820;DHT22;4949;48.482;9.206;2022-09-28T14:15:52;13.20;61.40
9820;DHT22;4949;48.482;9.206;2022-09-28T14:27:11;12.90;59.30
9820;DHT22;4949;48.482;9.206;2022-09-28T14:32:30;12.90;59.20
9820;DHT22;4949;48.482;9.206;2022-09-28T14:37:38;12.90;59.20
9820;DHT22;4949;48.482;9.206;2022-09-28T14:48:49;12.90;59.90
9820;DHT22;4949;48.482;9.206;2022-09-28T14:54:16;13.10;60.00
9820;DHT22;4949;48.482;9.206;2022-09-28T15:04:29;13.10;60.00
9820;DHT22;4949;48.482;9.206;2022-09-28T15:09:34;13.50;61.00
9820;DHT22;4949;48.482;9.206;2022-09-28T15:15:00;13.30;60.60
9820;DHT22;4949;48.482;9.206;2022-09-28T15:25:23;13.40;61.60
9820;DHT22;4949;48.482;9.206;2022-09-28T15:30:32;13.40;63.70
9820;DHT22;4949;48.482;9.206;2022-09-28T15:35:40;13.30;64.20
9820;DHT22;4949;48.482;9.206;2022-09-28T15:40:43;13.20;64.60
9820;DHT22;4949;48.482;9.206;2022-09-28T15:46:09;13.20;64.80
9820;DHT22;4949;48.482;9.206;2022-09-28T15:51:12;13.10;64.90
9820;DHT22;4949;48.482;9.206;2022-09-28T15:56:13;13.00;65.40
9820;DHT22;4949;48.482;9.206;2022-09-28T16:06:39;12.90;66.50
9820;DHT22;4949;48.482;9.206;2022-09-28T16:11:45;12.90;67.30
9820;DHT22;4949;48.482;9.206;2022-09-28T16:16:49;12.80;67.50
9820;DHT22;4949;48.482;9.206;2022-09-28T16:21:56;12.80;67.20
9820;DHT22;4949;48.482;9.206;2022-09-28T16:27:04;12.70;68.10
9820;DHT22;4949;48.482;9.206;2022-09-28T16:32:36;12.70;69.00
9820;DHT22;4949;48.482;9.206;2022-09-28T16:37:41;12.70;68.00
9820;DHT22;4949;48.482;9.206;2022-09-28T16:42:44;12.60;69.10
9820;DHT22;4949;48.482;9.206;2022-09-28T16:47:48;12.60;69.30
9820;DHT22;4949;48.482;9.206;2022-09-28T16:53:04;12.60;69.60
9820;DHT22;4949;48.482;9.206;2022-09-28T16:58:30;12.60;69.10
9820;DHT22;4949;48.482;9.206;2022-09-28T17:03:33;12.50;69.50
9820;DHT22;4949;48.482;9.206;2022-09-28T17:08:36;12.40;69.70
9820;DHT22;4949;48.482;9.206;2022-09-28T17:13:42;12.30;70.10
9820;DHT22;4949;48.482;9.206;2022-09-28T17:18:45;12.30;71.20
9820;DHT22;4949;48.482;9.206;2022-09-28T17:23:48;12.30;71.20
9820;DHT22;4949;48.482;9.206;2022-09-28T17:28:49;12.20;71.50
9820;DHT22;4949;48.482;9.206;2022-09-28T17:33:52;12.00;72.30
9820;DHT22;4949;48.482;9.206;2022-09-28T17:38:56;12.00;71.50
9820;DHT22;4949;48.482;9.206;2022-09-28T17:43:59;12.10;71.70
9820;DHT22;4949;48.482;9.206;2022-09-28T17:49:06;11.90;72.80
9820;DHT22;4949;48.482;9.206;2022-09-28T17:54:09;11.90;71.20
9820;DHT22;4949;48.482;9.206;2022-09-28T17:59:15;11.80;70.40
9820;DHT22;4949;48.482;9.206;2022-09-28T18:04:19;11.90;70.60
9820;DHT22;4949;48.482;9.206;2022-09-28T18:09:22;11.60;71.20
9820;DHT22;4949;48.482;9.206;2022-09-28T18:14:24;11.50;71.70
9820;DHT22;4949;48.482;9.206;2022-09-28T18:19:27;11.50;71.60
9820;DHT22;4949;48.482;9.206;2022-09-28T18:24:30;11.50;71.60
9820;DHT22;4949;48.482;9.206;2022-09-28T18:29:33;11.40;71.90
9820;DHT22;4949;48.482;9.206;2022-09-28T18:34:35;11.40;72.60
9820;DHT22;4949;48.482;9.206;2022-09-28T18:39:43;11.30;71.80
9820;DHT22;4949;48.482;9.206;2022-09-28T18:44:50;11.30;71.60
9820;DHT22;4949;48.482;9.206;2022-09-28T18:49:53;11.20;70.80
9820;DHT22;4949;48.482;9.206;2022-09-28T18:55:00;11.20;72.20
9820;DHT22;4949;48.482;9.206;2022-09-28T19:00:09;11.20;72.60
9820;DHT22;4949;48.482;9.206;2022-09-28T19:05:18;11.20;72.10
9820;DHT22;4949;48.482;9.206;2022-09-28T19:10:21;11.20;72.20
9820;DHT22;4949;48.482;9.206;2022-09-28T19:15:24;11.20;71.80
9820;DHT22;4949;48.482;9.206;2022-09-28T19:20:27;11.20;71.90
9820;DHT22;4949;48.482;9.206;2022-09-28T19:25:30;11.00;72.40
9820;DHT22;4949;48.482;9.206;2022-09-28T19:30:31;11.00;72.60
9820;DHT22;4949;48.482;9.206;2022-09-28T19:35:36;10.90;73.00
9820;DHT22;4949;48.482;9.206;2022-09-28T19:40:39;10.80;72.70
9820;DHT22;4949;48.482;9.206;2022-09-28T19:45:44;10.80;72.90
9820;DHT22;4949;48.482;9.206;2022-09-28T19:50:53;10.70;73.50
9820;DHT22;4949;48.482;9.206;2022-09-28T19:55:57;10.60;74.00
9820;DHT22;4949;48.482;9.206;2022-09-28T20:00:59;10.70;73.30
9820;DHT22;4949;48.482;9.206;2022-09-28T20:06:05;10.80;72.20
9820;DHT22;4949;48.482;9.206;2022-09-28T20:11:06;10.60;73.80
9820;DHT22;4949;48.482;9.206;2022-09-28T20:16:12;10.30;74.40
9820;DHT22;4949;48.482;9.206;2022-09-28T20:26:47;10.30;74.00
9820;DHT22;4949;48.482;9.206;2022-09-28T20:32:58;10.00;74.90
9820;DHT22;4949;48.482;9.206;2022-09-28T20:38:38;9.90;77.10
9820;DHT22;4949;48.482;9.206;2022-09-28T20:44:15;9.90;77.50
9820;DHT22;4949;48.482;9.206;2022-09-28T20:49:16;9.90;76.90
9820;DHT22;4949;48.482;9.206;2022-09-28T21:00:50;9.90;77.30
9820;DHT22;4949;48.482;9.206;2022-09-28T21:07:04;9.90;77.00
9820;DHT22;4949;48.482;9.206;2022-09-28T21:12:37;9.90;77.00
9820;DHT22;4949;48.482;9.206;2022-09-28T21:18:04;9.90;76.80
9820;DHT22;4949;48.482;9.206;2022-09-28T21:35:02;9.80;78.10
9820;DHT22;4949;48.482;9.206;2022-09-28T21:46:16;9.70;77.70
9820;DHT22;4949;48.482;9.206;2022-09-28T21:51:19;9.50;78.00
9820;DHT22;4949;48.482;9.206;2022-09-28T21:56:36;9.50;78.20
9820;DHT22;4949;48.482;9.206;2022-09-28T22:01:44;9.40;78.10
9820;DHT22;4949;48.482;9.206;2022-09-28T22:06:48;9.30;78.10
9820;DHT22;4949;48.482;9.206;2022-09-28T22:11:59;9.20;78.30
9820;DHT22;4949;48.482;9.206;2022-09-28T22:17:00;9.20;78.20
9820;DHT22;4949;48.482;9.206;2022-09-28T22:22:06;9.20;78.20
9820;DHT22;4949;48.482;9.206;2022-09-28T22:27:07;9.00;78.40
9820;DHT22;4949;48.482;9.206;2022-09-28T22:32:10;9.00;78.60
9820;DHT22;4949;48.482;9.206;2022-09-28T22:37:14;8.90;78.50
9820;DHT22;4949;48.482;9.206;2022-09-28T22:42:17;8.90;78.30
9820;DHT22;4949;48.482;9.206;2022-09-28T22:47:25;9.10;78.60
9820;DHT22;4949;48.482;9.206;2022-09-28T22:52:28;8.80;77.90
9820;DHT22;4949;48.482;9.206;2022-09-28T22:57:33;8.80;78.60
9820;DHT22;4949;48.482;9.206;2022-09-28T23:02:36;8.80;78.60
9820;DHT22;4949;48.482;9.206;2022-09-28T23:07:39;8.80;78.20
9820;DHT22;4949;48.482;9.206;2022-09-28T23:12:42;8.80;78.30
9820;DHT22;4949;48.482;9.206;2022-09-28T23:17:52;8.80;78.10
9820;DHT22;4949;48.482;9.206;2022-09-28T23:22:55;8.80;78.50
9820;DHT22;4949;48.482;9.206;2022-09-28T23:27:58;8.80;78.50
9820;DHT22;4949;48.482;9.206;2022-09-28T23:32:59;8.80;78.70
9820;DHT22;4949;48.482;9.206;2022-09-28T23:38:02;8.80;79.10
9820;DHT22;4949;48.482;9.206;2022-09-28T23:43:06;8.80;79.10
9820;DHT22;4949;48.482;9.206;2022-09-28T23:48:07;8.80;79.20
9820;DHT22;4949;48.482;9.206;2022-09-28T23:53:11;8.80;79.00
9820;DHT22;4949;48.482;9.206;2022-09-28T23:58:13;8.80;79.30
